createdAt,value
2017-06-21T00:00:18.634Z,19.38
2017-06-21T00:01:27.534Z,19.38
2017-06-21T00:02:36.433Z,19.27
2017-06-21T00:03:45.020Z,19.31
2017-06-21T00:04:53.912Z,19.25
2017-06-21T00:06:03.127Z,19.17
2017-06-21T00:07:12.350Z,19.15
2017-06-21T00:08:20.931Z,19.19
2017-06-21T00:09:30.153Z,19.1
2017-06-21T00:10:39.681Z,19.09
2017-06-21T00:11:48.892Z,18.99
2017-06-21T00:12:58.104Z,18.9
2017-06-21T00:14:07.005Z,18.93
2017-06-21T00:15:15.583Z,18.84
2017-06-21T00:16:24.165Z,18.79
2017-06-21T00:17:32.743Z,18.86
2017-06-21T00:18:41.639Z,18.91
2017-06-21T00:19:50.220Z,18.82
2017-06-21T00:20:59.113Z,18.78
2017-06-21T00:22:07.696Z,18.82
2017-06-21T00:23:16.596Z,18.76
2017-06-21T00:24:25.180Z,18.75
2017-06-21T00:25:34.398Z,18.75
2017-06-21T00:26:42.983Z,18.78
2017-06-21T00:27:51.878Z,18.71
2017-06-21T00:29:00.466Z,18.71
2017-06-21T00:30:09.362Z,18.79
2017-06-21T00:31:18.578Z,18.69
2017-06-21T00:32:27.158Z,18.68
2017-06-21T00:33:35.738Z,18.79
2017-06-21T00:34:44.315Z,18.66
2017-06-21T00:35:53.211Z,18.74
2017-06-21T00:37:01.791Z,18.71
2017-06-21T00:38:10.685Z,18.69
2017-06-21T00:39:19.259Z,18.69
2017-06-21T00:40:28.160Z,18.68
2017-06-21T00:41:37.054Z,18.72
2017-06-21T00:42:45.951Z,18.68
2017-06-21T00:43:54.842Z,18.76
2017-06-21T00:45:04.051Z,18.68
2017-06-21T00:46:13.266Z,18.69
2017-06-21T00:47:22.162Z,18.65
2017-06-21T00:48:30.743Z,18.63
2017-06-21T00:49:39.322Z,18.68
2017-06-21T00:50:48.214Z,18.57
2017-06-21T00:51:56.792Z,18.49
2017-06-21T00:53:05.692Z,18.56
2017-06-21T00:54:14.904Z,18.54
2017-06-21T00:55:23.808Z,18.49
2017-06-21T00:56:32.704Z,18.51
2017-06-21T00:57:41.282Z,18.29
2017-06-21T00:58:49.862Z,18.29
2017-06-21T00:59:58.759Z,18.35
2017-06-21T01:01:07.339Z,18.44
2017-06-21T01:02:16.237Z,18.41
2017-06-21T01:03:25.137Z,18.39
2017-06-21T01:04:34.348Z,18.35
2017-06-21T01:05:42.928Z,18.34
2017-06-21T01:06:51.504Z,18.34
2017-06-21T01:08:00.399Z,18.19
2017-06-21T01:09:09.293Z,18.14
2017-06-21T01:10:18.187Z,18.23
2017-06-21T01:11:27.084Z,18.16
2017-06-21T01:12:35.661Z,18.16
2017-06-21T01:13:44.496Z,18.14
2017-06-21T01:14:53.392Z,18.13
2017-06-21T01:16:02.606Z,18.16
2017-06-21T01:17:11.822Z,18.13
2017-06-21T01:18:20.404Z,18.02
2017-06-21T01:19:28.984Z,17.98
2017-06-21T01:20:37.876Z,17.98
2017-06-21T01:21:46.450Z,17.98
2017-06-21T01:22:55.355Z,17.96
2017-06-21T01:24:04.619Z,17.94
2017-06-21T01:25:13.197Z,17.95
2017-06-21T01:26:22.090Z,18.03
2017-06-21T01:27:30.983Z,17.95
2017-06-21T01:28:39.560Z,17.98
2017-06-21T01:29:48.469Z,17.95
2017-06-21T01:30:57.050Z,17.96
2017-06-21T01:32:06.589Z,17.94
2017-06-21T01:33:15.485Z,17.99
2017-06-21T01:34:24.692Z,18.01
2017-06-21T01:35:33.267Z,18.01
2017-06-21T01:36:41.848Z,18.01
2017-06-21T01:37:50.425Z,17.96
2017-06-21T01:38:59.001Z,17.87
2017-06-21T01:40:07.897Z,17.86
2017-06-21T01:41:17.106Z,17.83
2017-06-21T01:42:25.999Z,17.77
2017-06-21T01:43:34.571Z,17.77
2017-06-21T01:44:43.462Z,17.76
2017-06-21T01:45:52.040Z,17.73
2017-06-21T01:47:00.616Z,17.73
2017-06-21T01:48:09.194Z,17.76
2017-06-21T01:49:18.087Z,17.76
2017-06-21T01:50:26.671Z,17.74
2017-06-21T01:51:35.882Z,17.74
2017-06-21T01:52:44.775Z,17.63
2017-06-21T01:53:53.352Z,17.66
2017-06-21T01:55:02.562Z,17.76
2017-06-21T01:56:11.785Z,17.6
2017-06-21T01:57:20.682Z,17.6
2017-06-21T01:58:29.573Z,17.52
2017-06-21T01:59:38.784Z,17.5
2017-06-21T02:00:47.994Z,17.43
2017-06-21T02:01:56.887Z,17.45
2017-06-21T02:03:05.780Z,17.39
2017-06-21T02:04:14.994Z,17.35
2017-06-21T02:05:24.218Z,17.36
2017-06-21T02:06:33.119Z,17.32
2017-06-21T02:07:41.827Z,17.25
2017-06-21T02:08:50.724Z,17.31
2017-06-21T02:09:59.298Z,17.31
2017-06-21T02:11:07.876Z,17.2
2017-06-21T02:12:16.455Z,17.15
2017-06-21T02:13:25.347Z,17.2
2017-06-21T02:14:33.930Z,17.15
2017-06-21T02:15:42.824Z,17.12
2017-06-21T02:16:52.044Z,17.05
2017-06-21T02:18:00.639Z,16.99
2017-06-21T02:19:10.171Z,17.03
2017-06-21T02:20:18.750Z,16.99
2017-06-21T02:21:27.962Z,17
2017-06-21T02:22:36.540Z,16.95
2017-06-21T02:23:45.117Z,16.94
2017-06-21T02:24:53.722Z,16.92
2017-06-21T02:26:02.301Z,17
2017-06-21T02:27:10.882Z,16.95
2017-06-21T02:28:19.776Z,17.03
2017-06-21T02:29:28.673Z,17
2017-06-21T02:30:37.566Z,16.88
2017-06-21T02:31:46.460Z,16.91
2017-06-21T02:32:55.353Z,16.88
2017-06-21T02:34:04.249Z,16.9
2017-06-21T02:35:12.823Z,16.99
2017-06-21T02:36:21.400Z,16.94
2017-06-21T02:37:29.977Z,16.95
2017-06-21T02:38:38.872Z,16.88
2017-06-21T02:39:47.766Z,16.92
2017-06-21T02:40:56.383Z,16.85
2017-06-21T02:42:04.959Z,16.84
2017-06-21T02:43:14.486Z,16.87
2017-06-21T02:44:23.380Z,16.87
2017-06-21T02:45:32.277Z,16.88
2017-06-21T02:46:40.855Z,16.88
2017-06-21T02:47:49.433Z,16.84
2017-06-21T02:48:58.334Z,16.8
2017-06-21T02:50:07.549Z,16.82
2017-06-21T02:51:16.444Z,16.8
2017-06-21T02:52:25.022Z,16.76
2017-06-21T02:53:33.601Z,16.76
2017-06-21T02:54:42.496Z,16.82
2017-06-21T02:55:52.027Z,16.76
2017-06-21T02:57:00.924Z,16.74
2017-06-21T02:58:10.135Z,16.73
2017-06-21T02:59:19.028Z,16.65
2017-06-21T03:00:27.922Z,16.59
2017-06-21T03:01:36.501Z,16.57
2017-06-21T03:02:45.078Z,16.54
2017-06-21T03:03:54.294Z,16.51
2017-06-21T03:05:03.188Z,16.52
2017-06-21T03:06:11.770Z,16.52
2017-06-21T03:07:20.351Z,16.51
2017-06-21T03:08:29.565Z,16.45
2017-06-21T03:09:38.466Z,16.51
2017-06-21T03:10:47.042Z,16.57
2017-06-21T03:11:55.936Z,16.54
2017-06-21T03:13:05.152Z,16.44
2017-06-21T03:14:14.684Z,16.47
2017-06-21T03:15:23.671Z,16.47
2017-06-21T03:16:32.562Z,16.45
2017-06-21T03:17:41.833Z,16.42
2017-06-21T03:18:51.046Z,16.42
2017-06-21T03:20:00.053Z,16.37
2017-06-21T03:21:09.020Z,16.36
2017-06-21T03:22:17.596Z,16.3
2017-06-21T03:23:26.173Z,16.37
2017-06-21T03:24:35.066Z,16.44
2017-06-21T03:25:44.273Z,16.33
2017-06-21T03:26:52.855Z,16.39
2017-06-21T03:28:01.435Z,16.3
2017-06-21T03:29:10.011Z,16.32
2017-06-21T03:30:18.906Z,16.26
2017-06-21T03:31:27.796Z,16.27
2017-06-21T03:32:36.374Z,16.25
2017-06-21T03:33:44.951Z,16.26
2017-06-21T03:34:53.533Z,16.25
2017-06-21T03:36:02.429Z,16.27
2017-06-21T03:37:11.638Z,16.26
2017-06-21T03:38:20.847Z,16.27
2017-06-21T03:39:29.741Z,16.25
2017-06-21T03:40:38.640Z,16.3
2017-06-21T03:41:47.537Z,16.21
2017-06-21T03:42:57.389Z,16.27
2017-06-21T03:44:06.284Z,16.29
2017-06-21T03:45:15.181Z,16.26
2017-06-21T03:46:24.795Z,16.25
2017-06-21T03:47:33.380Z,16.25
2017-06-21T03:48:42.275Z,16.22
2017-06-21T03:49:51.169Z,16.3
2017-06-21T03:51:00.059Z,16.34
2017-06-21T03:52:08.954Z,16.36
2017-06-21T03:53:17.688Z,16.29
2017-06-21T03:54:26.274Z,16.21
2017-06-21T03:55:35.490Z,16.3
2017-06-21T03:56:44.386Z,16.32
2017-06-21T03:57:53.383Z,16.34
2017-06-21T03:59:02.287Z,16.4
2017-06-21T04:00:11.197Z,16.44
2017-06-21T04:01:19.782Z,16.47
2017-06-21T04:02:28.680Z,16.42
2017-06-21T04:03:37.256Z,16.47
2017-06-21T04:04:45.832Z,16.47
2017-06-21T04:05:55.361Z,16.45
2017-06-21T04:07:04.570Z,16.4
2017-06-21T04:08:13.460Z,16.49
2017-06-21T04:09:22.356Z,16.55
2017-06-21T04:10:31.250Z,16.48
2017-06-21T04:11:40.462Z,16.48
2017-06-21T04:12:49.038Z,16.47
2017-06-21T04:13:57.618Z,16.51
2017-06-21T04:15:06.512Z,16.51
2017-06-21T04:16:15.408Z,16.54
2017-06-21T04:17:24.302Z,16.65
2017-06-21T04:18:33.195Z,16.63
2017-06-21T04:19:41.776Z,16.62
2017-06-21T04:20:50.365Z,16.66
2017-06-21T04:21:58.947Z,16.72
2017-06-21T04:23:07.842Z,16.85
2017-06-21T04:24:16.736Z,16.91
2017-06-21T04:25:25.313Z,16.97
2017-06-21T04:26:34.524Z,16.88
2017-06-21T04:27:43.106Z,16.88
2017-06-21T04:28:51.689Z,16.97
2017-06-21T04:30:00.270Z,16.99
2017-06-21T04:31:08.849Z,17.05
2017-06-21T04:32:17.742Z,17
2017-06-21T04:33:26.634Z,16.91
2017-06-21T04:34:35.526Z,17.03
2017-06-21T04:35:44.419Z,16.87
2017-06-21T04:36:53.631Z,16.94
2017-06-21T04:38:02.841Z,17
2017-06-21T04:39:11.733Z,17.03
2017-06-21T04:40:20.311Z,17
2017-06-21T04:41:29.523Z,16.99
2017-06-21T04:42:38.099Z,17.06
2017-06-21T04:43:47.309Z,16.87
2017-06-21T04:44:56.208Z,16.85
2017-06-21T04:46:04.817Z,16.87
2017-06-21T04:47:14.031Z,16.91
2017-06-21T04:48:23.877Z,16.87
2017-06-21T04:49:32.781Z,16.84
2017-06-21T04:50:42.223Z,16.84
2017-06-21T04:51:50.868Z,16.76
2017-06-21T04:52:59.770Z,16.76
2017-06-21T04:54:08.343Z,16.72
2017-06-21T04:55:17.237Z,16.69
2017-06-21T04:56:26.133Z,16.67
2017-06-21T04:57:35.030Z,16.65
2017-06-21T04:58:43.926Z,16.65
2017-06-21T04:59:53.136Z,16.63
2017-06-21T05:01:01.720Z,16.66
2017-06-21T05:02:10.339Z,16.74
2017-06-21T05:03:19.241Z,16.77
2017-06-21T05:04:28.138Z,16.77
2017-06-21T05:05:36.718Z,16.85
2017-06-21T05:06:45.611Z,16.84
2017-06-21T05:07:54.822Z,16.84
2017-06-21T05:09:04.032Z,16.87
2017-06-21T05:10:13.241Z,16.88
2017-06-21T05:11:22.769Z,16.95
2017-06-21T05:12:31.979Z,17
2017-06-21T05:13:40.556Z,17.03
2017-06-21T05:14:49.771Z,17.17
2017-06-21T05:15:58.674Z,17.21
2017-06-21T05:17:07.569Z,17.32
2017-06-21T05:18:16.467Z,17.47
2017-06-21T05:19:25.471Z,17.62
2017-06-21T05:20:34.362Z,17.66
2017-06-21T05:21:42.939Z,17.79
2017-06-21T05:22:51.835Z,17.87
2017-06-21T05:24:00.413Z,18.08
2017-06-21T05:25:09.004Z,18.31
2017-06-21T05:26:18.358Z,18.56
2017-06-21T05:27:28.087Z,18.75
2017-06-21T05:28:37.295Z,19.09
2017-06-21T05:29:46.863Z,19.17
2017-06-21T05:30:55.778Z,19.52
2017-06-21T05:32:04.680Z,19.74
2017-06-21T05:33:13.896Z,20.04
2017-06-21T05:34:22.791Z,20.19
2017-06-21T05:35:31.381Z,20.41
2017-06-21T05:36:40.285Z,20.48
2017-06-21T05:37:49.183Z,20.49
2017-06-21T05:38:58.079Z,20.67
2017-06-21T05:40:06.978Z,20.88
2017-06-21T05:41:15.555Z,20.97
2017-06-21T05:42:24.136Z,21.23
2017-06-21T05:43:33.036Z,21.33
2017-06-21T05:44:41.618Z,21.46
2017-06-21T05:45:50.523Z,21.58
2017-06-21T05:46:59.103Z,21.7
2017-06-21T05:48:07.686Z,21.73
2017-06-21T05:49:16.267Z,21.82
2017-06-21T05:50:25.171Z,21.96
2017-06-21T05:51:34.386Z,22.15
2017-06-21T05:52:42.965Z,22.2
2017-06-21T05:53:51.863Z,22.2
2017-06-21T05:55:01.535Z,22.24
2017-06-21T05:56:10.125Z,22.38
2017-06-21T05:57:19.340Z,22.34
2017-06-21T05:58:28.241Z,22.59
2017-06-21T05:59:36.835Z,22.31
2017-06-21T06:00:45.743Z,22.34
2017-06-21T06:01:54.333Z,22.22
2017-06-21T06:03:03.241Z,22.02
2017-06-21T06:04:12.137Z,21.86
2017-06-21T06:05:21.040Z,21.64
2017-06-21T06:06:30.296Z,21.7
2017-06-21T06:07:39.511Z,21.68
2017-06-21T06:08:48.097Z,21.67
2017-06-21T06:09:57.312Z,21.61
2017-06-21T06:11:05.897Z,21.74
2017-06-21T06:12:14.477Z,21.59
2017-06-21T06:13:24.167Z,21.7
2017-06-21T06:14:33.067Z,21.78
2017-06-21T06:15:41.969Z,21.59
2017-06-21T06:16:50.888Z,21.62
2017-06-21T06:17:59.786Z,21.53
2017-06-21T06:19:08.366Z,21.52
2017-06-21T06:20:17.582Z,21.58
2017-06-21T06:21:26.173Z,21.53
2017-06-21T06:22:34.768Z,21.51
2017-06-21T06:23:43.668Z,21.49
2017-06-21T06:24:52.566Z,21.51
2017-06-21T06:26:01.150Z,21.55
2017-06-21T06:27:09.734Z,21.74
2017-06-21T06:28:18.635Z,21.74
2017-06-21T06:29:27.538Z,21.59
2017-06-21T06:30:36.755Z,21.56
2017-06-21T06:31:45.968Z,21.59
2017-06-21T06:32:54.549Z,21.56
2017-06-21T06:34:03.765Z,21.68
2017-06-21T06:35:12.672Z,21.52
2017-06-21T06:36:21.271Z,21.53
2017-06-21T06:37:29.852Z,21.53
2017-06-21T06:38:38.439Z,21.53
2017-06-21T06:39:47.338Z,21.53
2017-06-21T06:40:56.237Z,21.53
2017-06-21T06:42:05.138Z,21.53
2017-06-21T06:43:13.719Z,21.59
2017-06-21T06:44:22.294Z,21.53
2017-06-21T06:45:31.194Z,21.66
2017-06-21T06:46:40.090Z,21.55
2017-06-21T06:47:48.986Z,21.53
2017-06-21T06:48:57.883Z,21.49
2017-06-21T06:50:06.468Z,21.61
2017-06-21T06:51:15.685Z,21.59
2017-06-21T06:52:24.911Z,21.62
2017-06-21T06:53:33.495Z,21.58
2017-06-21T06:54:42.082Z,21.66
2017-06-21T06:55:50.663Z,21.76
2017-06-21T06:56:59.564Z,22
2017-06-21T06:58:08.460Z,22
2017-06-21T06:59:17.671Z,22.07
2017-06-21T07:00:26.580Z,22.18
2017-06-21T07:01:35.160Z,22.16
2017-06-21T07:02:44.066Z,22.08
2017-06-21T07:03:52.646Z,22.15
2017-06-21T07:05:01.859Z,22.09
2017-06-21T07:06:10.756Z,22.16
2017-06-21T07:07:19.671Z,22.12
2017-06-21T07:08:28.568Z,22.16
2017-06-21T07:09:37.149Z,22.24
2017-06-21T07:10:45.740Z,22.2
2017-06-21T07:11:55.290Z,22.29
2017-06-21T07:13:04.492Z,22.36
2017-06-21T07:14:13.431Z,22.39
2017-06-21T07:15:22.339Z,22.34
2017-06-21T07:16:30.927Z,22.29
2017-06-21T07:17:39.828Z,22.24
2017-06-21T07:18:48.731Z,22.24
2017-06-21T07:19:57.949Z,22.23
2017-06-21T07:21:06.529Z,22.39
2017-06-21T07:22:15.109Z,22.36
2017-06-21T07:23:23.690Z,22.38
2017-06-21T07:24:32.908Z,22.48
2017-06-21T07:25:41.804Z,22.54
2017-06-21T07:26:50.386Z,22.63
2017-06-21T07:27:59.285Z,22.52
2017-06-21T07:29:07.862Z,22.54
2017-06-21T07:30:16.761Z,22.55
2017-06-21T07:31:25.980Z,22.54
2017-06-21T07:32:34.964Z,22.52
2017-06-21T07:33:43.866Z,22.64
2017-06-21T07:34:53.081Z,22.63
2017-06-21T07:36:01.660Z,22.64
2017-06-21T07:37:10.244Z,22.7
2017-06-21T07:38:18.830Z,22.64
2017-06-21T07:39:27.411Z,22.7
2017-06-21T07:40:36.639Z,22.71
2017-06-21T07:41:45.223Z,22.81
2017-06-21T07:42:54.441Z,22.81
2017-06-21T07:44:03.340Z,22.79
2017-06-21T07:45:11.919Z,22.76
2017-06-21T07:46:21.143Z,22.7
2017-06-21T07:47:30.685Z,22.82
2017-06-21T07:48:39.289Z,22.73
2017-06-21T07:49:47.876Z,22.76
2017-06-21T07:50:56.774Z,22.81
2017-06-21T07:52:05.355Z,22.81
2017-06-21T07:53:13.939Z,22.96
2017-06-21T07:54:23.157Z,22.99
2017-06-21T07:55:32.054Z,22.97
2017-06-21T07:56:41.269Z,23.07
2017-06-21T07:57:49.856Z,23.07
2017-06-21T07:58:59.071Z,23.1
2017-06-21T08:00:07.660Z,23.1
2017-06-21T08:01:16.559Z,23.15
2017-06-21T08:02:26.091Z,23.12
2017-06-21T08:03:34.990Z,23.22
2017-06-21T08:04:43.890Z,23.4
2017-06-21T08:05:52.473Z,23.4
2017-06-21T08:07:01.384Z,23.47
2017-06-21T08:08:10.600Z,23.47
2017-06-21T08:09:21.122Z,23.5
2017-06-21T08:10:30.020Z,23.47
2017-06-21T08:11:39.243Z,23.5
2017-06-21T08:12:48.010Z,23.47
2017-06-21T08:13:57.471Z,23.52
2017-06-21T08:15:06.522Z,23.55
2017-06-21T08:16:16.057Z,23.6
2017-06-21T08:17:24.957Z,23.63
2017-06-21T08:18:33.555Z,23.59
2017-06-21T08:19:42.171Z,23.7
2017-06-21T08:20:50.752Z,23.64
2017-06-21T08:21:59.333Z,23.64
2017-06-21T08:23:08.239Z,23.7
2017-06-21T08:24:17.139Z,23.72
2017-06-21T08:25:26.046Z,23.74
2017-06-21T08:26:34.946Z,23.85
2017-06-21T08:27:43.845Z,23.82
2017-06-21T08:28:52.431Z,23.78
2017-06-21T08:30:01.335Z,23.87
2017-06-21T08:31:10.236Z,23.81
2017-06-21T08:32:19.460Z,23.97
2017-06-21T08:33:28.374Z,23.99
2017-06-21T08:34:37.931Z,23.96
2017-06-21T08:35:47.156Z,23.96
2017-06-21T08:36:56.061Z,23.94
2017-06-21T08:38:05.276Z,24
2017-06-21T08:39:14.173Z,24.07
2017-06-21T08:40:23.384Z,24.21
2017-06-21T08:41:31.964Z,24.24
2017-06-21T08:42:40.542Z,24.18
2017-06-21T08:43:49.122Z,24.34
2017-06-21T08:44:58.020Z,24.4
2017-06-21T08:46:06.923Z,24.45
2017-06-21T08:47:16.144Z,24.45
2017-06-21T08:48:27.045Z,24.45
